Time;durP1;ratioP1;P1;durP2;ratioP2;P2;SDS_P1;SDS_P2;PMS_P1;PMS_P2;Temp;Humidity;BMP_temperature;BMP_pressure;BME280_temperature;BME280_humidity;BME280_pressure;Samples;Min_cycle;Max_cycle;Signal;HPM_P1;HPM_P2
2022/04/20 00:02:01;;;;;;;5.07;3.72;;;;;;;9.49;51.96;101349.47;5086541;29;20092;-81
2022/04/20 00:04:36;;;;;;;4.78;3.10;;;;;;;9.42;51.97;101352.94;5085829;29;20021;-81
2022/04/20 00:07:10;;;;;;;4.68;3.38;;;;;;;9.15;52.60;101330.38;5071028;29;20197;-79
2022/04/20 00:10:08;;;;;;;10.48;3.17;;;;;;;9.33;51.77;101344.28;5086384;29;20065;-82
2022/04/20 00:12:51;;;;;;;5.65;3.55;;;;;;;9.30;52.54;101337.31;5146506;28;20189;-80
2022/04/20 00:15:35;;;;;;;6.00;3.05;;;;;;;9.06;52.87;101341.59;5167305;28;20102;-81
2022/04/20 00:18:14;;;;;;;6.57;3.33;;;;;;;9.18;52.59;101340.78;5169381;28;20033;-81
2022/04/20 00:20:49;;;;;;;5.80;3.15;;;;;;;9.09;53.22;101339.00;5183626;28;20118;-82
2022/04/20 00:23:26;;;;;;;6.85;3.90;;;;;;;9.07;53.06;101338.13;5166659;28;20855;-81
2022/04/20 00:26:05;;;;;;;5.45;3.08;;;;;;;9.09;53.42;101352.00;5184358;28;20046;-82
2022/04/20 00:28:43;;;;;;;6.10;3.72;;;;;;;8.90;53.73;101345.91;5166571;28;20030;-82
2022/04/20 00:31:19;;;;;;;7.78;3.38;;;;;;;8.85;53.41;101350.22;5183005;28;20037;-81
2022/04/20 00:34:04;;;;;;;4.68;2.83;;;;;;;8.83;53.91;101356.28;5183394;28;20110;-81
2022/04/20 00:36:43;;;;;;;5.43;3.10;;;;;;;8.71;53.73;101344.09;5165761;28;20122;-81
2022/04/20 00:39:27;;;;;;;6.78;3.67;;;;;;;8.89;54.14;101353.72;5217738;28;20033;-82
2022/04/20 00:42:07;;;;;;;9.55;3.30;;;;;;;8.71;54.04;101352.78;5247213;28;20052;-82
2022/04/20 00:44:43;;;;;;;6.53;3.58;;;;;;;8.84;53.92;101369.28;5246457;28;20021;-81
2022/04/20 00:47:34;;;;;;;4.97;3.60;;;;;;;8.64;55.01;101368.31;5246869;28;20116;-82
2022/04/20 00:50:17;;;;;;;7.95;3.53;;;;;;;8.70;54.41;101355.38;5243466;28;20037;-81
2022/04/20 00:52:51;;;;;;;6.00;3.22;;;;;;;8.65;54.85;101364.88;5246599;28;20037;-80
2022/04/20 00:55:27;;;;;;;9.38;3.67;;;;;;;8.64;54.59;101371.78;5261612;28;20052;-81
2022/04/20 00:58:05;;;;;;;10.82;3.58;;;;;;;8.33;55.65;101366.41;5267468;28;20391;-81
2022/04/20 01:00:38;;;;;;;6.63;3.75;;;;;;;8.55;54.93;101371.78;5267319;28;20150;-80
2022/04/20 01:03:13;;;;;;;7.20;3.70;;;;;;;8.47;55.17;101363.03;5267779;28;20029;-78
2022/04/20 01:05:47;;;;;;;5.30;3.50;;;;;;;8.29;55.81;101362.06;5267132;28;20107;-80
2022/04/20 01:08:21;;;;;;;5.38;3.42;;;;;;;8.24;55.83;101360.28;5266931;28;20078;-80
2022/04/20 01:11:00;;;;;;;8.32;4.13;;;;;;;8.28;55.78;101370.72;5267539;28;20088;-80
2022/04/20 01:13:34;;;;;;;5.13;3.53;;;;;;;8.33;55.71;101365.53;5266579;28;20036;-78
2022/04/20 01:16:12;;;;;;;4.05;3.22;;;;;;;8.17;55.57;101374.97;5249844;28;20032;-80
2022/04/20 01:18:53;;;;;;;7.07;3.50;;;;;;;8.13;55.80;101368.88;5249277;28;20494;-80
2022/04/20 01:21:28;;;;;;;5.28;3.72;;;;;;;8.06;56.22;101374.03;5249060;28;20021;-80
2022/04/20 01:24:01;;;;;;;5.65;3.25;;;;;;;8.05;56.28;101362.78;5248076;28;20066;-79
2022/04/20 01:26:44;;;;;;;7.45;3.60;;;;;;;8.12;55.55;101367.13;5250662;28;20112;-79
2022/04/20 01:29:19;;;;;;;5.22;3.90;;;;;;;7.89;55.97;101355.72;5267190;28;20029;-79
2022/04/20 01:31:55;;;;;;;5.22;3.65;;;;;;;7.95;56.58;101371.34;5266453;28;20029;-80
2022/04/20 01:34:33;;;;;;;5.60;3.40;;;;;;;7.91;56.86;101377.38;5267928;28;20029;-81
2022/04/20 01:37:11;;;;;;;8.00;3.65;;;;;;;7.73;57.32;101378.06;5247379;28;20062;-79
2022/04/20 01:39:51;;;;;;;8.07;4.47;;;;;;;7.74;56.96;101372.03;5266802;28;20044;-80
2022/04/20 01:42:27;;;;;;;7.43;3.60;;;;;;;7.78;57.11;101377.28;5267509;28;20021;-80
2022/04/20 01:45:12;;;;;;;6.60;3.70;;;;;;;7.68;57.30;101378.06;5268399;28;20156;-79
2022/04/20 01:47:54;;;;;;;6.30;4.10;;;;;;;7.55;57.24;101371.91;5251738;28;20332;-81
2022/04/20 01:53:39;;;;;;;6.20;3.80;;;;;;;7.53;57.97;101373.59;5266477;28;20037;-80
2022/04/20 01:56:15;;;;;;;5.90;4.30;;;;;;;7.45;58.32;101376.13;5244924;28;20056;-79
2022/04/20 01:58:52;;;;;;;6.90;4.00;;;;;;;7.31;58.14;101375.13;5244954;28;20460;-80
2022/04/20 02:04:26;;;;;;;7.10;3.75;;;;;;;7.20;59.11;101375.00;5245893;28;20037;-80
2022/04/20 02:07:01;;;;;;;5.93;4.03;;;;;;;7.23;59.06;101375.03;5246311;28;20028;-80
2022/04/20 02:09:37;;;;;;;10.07;4.10;;;;;;;7.14;59.16;101369.75;5245385;28;20035;-81
2022/04/20 02:12:15;;;;;;;5.38;4.05;;;;;;;7.07;59.38;101381.78;5246097;28;20026;-80
2022/04/20 02:14:54;;;;;;;7.50;3.78;;;;;;;7.07;59.37;101375.75;5244152;28;20029;-80
2022/04/20 02:17:41;;;;;;;6.53;4.15;;;;;;;6.90;60.01;101363.44;5245621;28;20024;-79
2022/04/20 02:20:17;;;;;;;8.13;4.25;;;;;;;6.81;59.58;101371.13;5243455;28;20044;-79
2022/04/20 02:23:00;;;;;;;8.63;4.30;;;;;;;6.79;59.66;101370.22;5243422;28;20476;-79
2022/04/20 02:25:57;;;;;;;7.65;3.85;;;;;;;6.70;59.74;101370.13;5245392;28;20040;-81
2022/04/20 02:28:33;;;;;;;9.05;4.47;;;;;;;6.65;60.51;101375.25;5242751;28;20036;-81
2022/04/20 02:31:16;;;;;;;8.25;4.40;;;;;;;6.62;60.47;101370.00;5244037;28;20032;-80
2022/04/20 02:33:58;;;;;;;;;;;;;;;6.62;58.07;101374.31;5244506;28;20026;-81
2022/04/20 02:36:39;;;;;;;6.88;3.95;;;;;;;6.62;60.25;101375.19;5242646;28;19913;-82
2022/04/20 02:39:28;;;;;;;7.60;4.55;;;;;;;6.37;60.70;101359.31;5245030;28;20021;-81
2022/04/20 02:42:08;;;;;;;7.40;5.13;;;;;;;6.38;61.34;101365.38;5244232;28;20049;-80
2022/04/20 02:44:42;;;;;;;7.80;4.03;;;;;;;6.33;61.24;101367.91;5242431;28;20036;-78
2022/04/20 02:47:17;;;;;;;6.60;4.70;;;;;;;6.31;61.07;101367.03;5243808;28;20021;-80
2022/04/20 02:49:57;;;;;;;6.97;4.45;;;;;;;6.32;61.45;101366.16;5244116;28;20384;-80
2022/04/20 02:52:33;;;;;;;6.65;4.18;;;;;;;6.35;61.33;101371.38;5244293;28;20028;-80
2022/04/20 02:55:09;;;;;;;6.13;4.15;;;;;;;6.31;61.59;101379.06;5243314;28;20175;-80
2022/04/20 02:57:51;;;;;;;9.02;4.93;;;;;;;6.36;61.56;101392.97;5244153;28;20026;-79
2022/04/20 03:00:38;;;;;;;6.30;4.40;;;;;;;6.24;61.00;101378.13;5245347;28;20152;-80
2022/04/20 03:03:20;;;;;;;5.57;3.83;;;;;;;6.13;61.87;101383.13;5244461;28;20025;-80
2022/04/20 03:05:54;;;;;;;7.90;4.35;;;;;;;6.18;61.85;101386.69;5242659;28;20399;-80
2022/04/20 03:08:34;;;;;;;7.85;4.25;;;;;;;5.97;61.85;101386.34;5244207;28;20056;-80
2022/04/20 03:11:20;;;;;;;9.90;4.80;;;;;;;5.98;62.09;101381.19;5244090;28;20025;-80
2022/04/20 03:13:58;;;;;;;7.30;4.38;;;;;;;5.85;62.65;101385.25;5226115;28;20068;-80
2022/04/20 03:16:38;;;;;;;5.60;4.25;;;;;;;5.99;62.58;101392.44;5244303;28;20095;-79
2022/04/20 03:19:15;;;;;;;10.27;4.30;;;;;;;5.88;62.36;101373.25;5244481;28;20018;-81
2022/04/20 03:22:01;;;;;;;8.98;4.50;;;;;;;5.74;62.84;101371.28;5243015;28;20033;-81
2022/04/20 03:24:49;;;;;;;10.25;5.15;;;;;;;5.73;62.50;101377.31;5242691;28;20057;-80
2022/04/20 03:27:46;;;;;;;7.65;4.72;;;;;;;5.71;62.35;101384.16;5243518;28;20492;-80
2022/04/20 03:30:32;;;;;;;6.40;4.53;;;;;;;5.64;63.06;101379.75;5242036;28;20534;-80
2022/04/20 03:33:19;;;;;;;11.77;4.40;;;;;;;5.75;62.88;101398.91;5246176;28;20068;-82
2022/04/20 03:35:58;;;;;;;7.03;4.53;;;;;;;5.54;63.50;101388.16;5248292;28;20029;-81
2022/04/20 03:38:35;;;;;;;6.78;3.95;;;;;;;5.63;62.83;101396.94;5230733;28;20124;-81
2022/04/20 03:41:11;;;;;;;7.57;4.97;;;;;;;5.54;63.88;101404.56;5247074;28;20045;-81
2022/04/20 03:43:55;;;;;;;8.35;4.80;;;;;;;5.51;63.23;101377.78;5247715;28;20043;-81
2022/04/20 03:46:41;;;;;;;10.00;4.55;;;;;;;5.50;63.52;101404.50;5248724;28;20040;-81
2022/04/20 03:49:21;;;;;;;8.48;4.70;;;;;;;5.57;63.75;101402.03;5248215;28;20419;-81
2022/04/20 03:51:57;;;;;;;8.13;4.22;;;;;;;5.39;64.03;101396.53;5248236;28;20033;-79
2022/04/20 03:54:36;;;;;;;6.80;4.40;;;;;;;5.59;63.20;101402.06;5253024;28;20041;-81
2022/04/20 03:57:14;;;;;;;7.70;4.53;;;;;;;5.43;63.50;101398.34;5269137;28;20032;-80
2022/04/20 03:59:55;;;;;;;7.35;4.43;;;;;;;5.51;63.50;101409.69;5269048;28;20040;-80
2022/04/20 04:02:35;;;;;;;9.07;4.55;;;;;;;5.42;63.86;101405.19;5268230;28;20025;-81
2022/04/20 04:05:09;;;;;;;;;;;;;;;5.42;61.62;101418.13;5268380;28;20036;-81
2022/04/20 04:07:52;;;;;;;7.20;4.88;;;;;;;5.40;63.59;101403.44;5267914;28;19992;-80
2022/04/20 04:10:34;;;;;;;8.05;5.28;;;;;;;5.38;63.32;101413.75;5268581;28;20052;-81
2022/04/20 04:13:09;;;;;;;7.18;4.35;;;;;;;5.37;63.96;101416.31;5268387;28;20025;-82
2022/04/20 04:15:50;;;;;;;6.53;4.60;;;;;;;5.34;63.80;101414.53;5267861;28;20020;-81
2022/04/20 04:18:31;;;;;;;7.65;4.50;;;;;;;5.33;63.69;101412.81;5267880;28;20036;-81
2022/04/20 04:21:04;;;;;;;7.15;4.15;;;;;;;5.21;64.52;101420.31;5267610;28;20063;-81
2022/04/20 04:23:40;;;;;;;5.60;4.30;;;;;;;5.30;64.63;101423.09;5249784;28;20535;-82
2022/04/20 04:26:17;;;;;;;9.55;4.75;;;;;;;5.15;64.83;101408.13;5268110;28;20546;-83
2022/04/20 04:28:56;;;;;;;6.72;4.90;;;;;;;5.24;64.81;101426.41;5267601;28;20421;-82
2022/04/20 04:31:42;;;;;;;7.93;5.20;;;;;;;5.07;64.89;101426.09;5266678;28;20025;-82
2022/04/20 04:34:19;;;;;;;11.25;4.50;;;;;;;5.09;65.24;101437.31;5247597;28;20033;-81
2022/04/20 04:36:57;;;;;;;6.53;4.68;;;;;;;5.09;65.78;101428.72;5267203;28;20071;-81
2022/04/20 04:39:37;;;;;;;7.68;5.07;;;;;;;5.12;65.83;101444.28;5266398;28;20443;-82
2022/04/20 04:42:12;;;;;;;6.82;5.22;;;;;;;5.15;65.42;101446.03;5249707;28;20467;-81
2022/04/20 04:44:49;;;;;;;7.43;4.43;;;;;;;5.03;65.21;101429.44;5267722;28;20025;-80
2022/04/20 04:50:17;;;;;;;7.72;5.57;;;;;;;4.98;65.91;101440.53;5267057;28;20092;-80
2022/04/20 04:52:53;;;;;;;9.13;5.40;;;;;;;5.05;66.18;101447.56;5267498;28;20048;-81
2022/04/20 04:55:31;;;;;;;10.52;5.35;;;;;;;5.01;65.75;101454.41;5244651;28;20053;-80
2022/04/20 04:58:13;;;;;;;10.48;5.07;;;;;;;4.99;65.61;101457.78;5246502;28;20475;-83
2022/04/20 05:00:48;;;;;;;8.15;5.25;;;;;;;5.08;66.00;101463.13;5246253;28;20025;-80
2022/04/20 05:03:28;;;;;;;8.18;4.72;;;;;;;4.95;65.45;101443.06;5245640;28;20025;-82
2022/04/20 05:06:04;;;;;;;12.35;4.80;;;;;;;4.93;66.30;101450.78;5244900;28;20392;-81
2022/04/20 05:08:50;;;;;;;8.43;5.25;;;;;;;5.04;66.28;101448.41;5243741;28;20026;-81
2022/04/20 05:11:28;;;;;;;10.88;5.47;;;;;;;4.99;66.54;101447.44;5244915;28;20014;-82
2022/04/20 05:14:07;;;;;;;7.57;5.07;;;;;;;5.02;66.46;101461.28;5244419;28;20026;-81
2022/04/20 05:17:03;;;;;;;7.68;5.35;;;;;;;4.99;67.04;101450.91;5242943;28;20135;-83
2022/04/20 05:19:50;;;;;;;6.97;5.10;;;;;;;5.04;67.13;101449.28;5246657;28;20040;-81
2022/04/20 05:22:31;;;;;;;9.15;5.97;;;;;;;5.05;67.21;101443.25;5245862;28;20026;-81
2022/04/20 05:25:07;;;;;;;7.70;5.20;;;;;;;5.24;66.71;101454.00;5245780;28;20117;-81
2022/04/20 05:27:47;;;;;;;7.10;5.10;;;;;;;5.20;66.17;101462.50;5244006;28;20036;-81
2022/04/20 05:30:29;;;;;;;7.60;5.40;;;;;;;5.25;66.92;101458.31;5242892;28;20041;-81
2022/04/20 05:33:08;;;;;;;12.02;5.68;;;;;;;5.33;65.96;101471.38;5245785;28;20032;-81
2022/04/20 05:35:48;;;;;;;10.65;6.75;;;;;;;5.35;65.72;101461.97;5245268;28;20036;-81
2022/04/20 05:41:54;;;;;;;8.02;5.07;;;;;;;5.57;65.65;101465.81;5245480;28;20026;-81
2022/04/20 05:44:21;;;;;;;12.13;5.28;;;;;;;5.56;65.59;101466.66;5243557;28;20045;-81
2022/04/20 05:47:01;;;;;;;13.68;5.80;;;;;;;5.68;65.35;101455.66;5245513;28;20022;-80
2022/04/20 05:49:43;;;;;;;8.55;5.07;;;;;;;5.75;64.58;101457.53;5245606;28;20068;-79
2022/04/20 05:52:19;;;;;;;7.80;5.40;;;;;;;5.88;64.52;101476.75;5246319;28;20128;-80
2022/04/20 05:54:58;;;;;;;7.38;5.05;;;;;;;6.00;64.28;101462.28;5249182;28;20056;-82
2022/04/20 05:57:36;;;;;;;9.25;5.90;;;;;;;6.13;63.84;101473.72;5248166;28;20044;-82
2022/04/20 06:00:18;;;;;;;10.90;5.55;;;;;;;6.36;63.57;101474.13;5248328;28;20355;-80
2022/04/20 06:02:55;;;;;;;7.75;5.15;;;;;;;6.36;63.00;101452.53;5267860;28;20033;-81
2022/04/20 06:05:41;;;;;;;8.45;5.35;;;;;;;6.52;62.55;101462.28;5265807;28;20428;-82
2022/04/20 06:08:19;;;;;;;10.43;5.53;;;;;;;6.59;62.57;101458.03;5265717;28;20470;-81
2022/04/20 06:10:55;;;;;;;11.00;5.25;;;;;;;6.77;61.04;101460.03;5249170;28;20033;-82
2022/04/20 06:13:34;;;;;;;7.93;4.53;;;;;;;7.00;60.21;101481.06;5248056;28;20033;-82
2022/04/20 06:16:12;;;;;;;8.13;5.93;;;;;;;7.08;60.22;101470.78;5265956;28;20021;-81
2022/04/20 06:18:52;;;;;;;8.38;5.13;;;;;;;7.29;59.14;101475.38;5266917;28;20029;-82
2022/04/20 06:21:29;;;;;;;8.07;4.75;;;;;;;7.41;58.90;101470.31;5266103;28;20024;-81
2022/04/20 06:24:13;;;;;;;9.23;4.72;;;;;;;7.56;57.80;101480.00;5265338;28;20021;-81
2022/04/20 06:26:45;;;;;;;;;;;;;;;7.65;58.31;101487.88;5247883;28;20029;-82
2022/04/20 06:29:21;;;;;;;9.13;4.40;;;;;;;7.78;57.14;101477.63;5264192;28;20297;-81
2022/04/20 06:31:57;;;;;;;8.02;4.93;;;;;;;7.90;57.22;101472.53;5265489;28;20111;-81
2022/04/20 06:34:32;;;;;;;6.95;4.90;;;;;;;8.04;56.55;101478.72;5264317;28;20532;-79
2022/04/20 06:37:08;;;;;;;7.10;4.95;;;;;;;8.11;56.27;101474.44;5252931;28;20029;-82
2022/04/20 06:39:43;;;;;;;20.92;5.38;;;;;;;8.31;55.98;101478.97;5268176;28;20020;-81
2022/04/20 06:42:21;;;;;;;12.00;5.05;;;;;;;8.40;55.80;101486.81;5249449;28;20038;-82
2022/04/20 06:44:57;;;;;;;13.63;4.82;;;;;;;8.52;55.35;101483.47;5249129;28;20032;-81
2022/04/20 06:47:33;;;;;;;8.05;4.63;;;;;;;8.62;55.25;101477.47;5266579;28;20025;-80
2022/04/20 06:50:05;;;;;;;8.05;4.38;;;;;;;8.78;55.50;101486.25;5266886;28;20028;-80
2022/04/20 06:58:39;;;;;;;;;;;;;;;9.13;53.68;101486.41;5269796;28;20025;-80
2022/04/20 07:01:14;;;;;;;10.82;4.93;;;;;;;9.20;52.75;101481.25;5270354;28;19917;-80
2022/04/20 07:03:54;;;;;;;9.93;4.85;;;;;;;9.28;52.56;101472.59;5251960;28;20032;-82
2022/04/20 07:06:28;;;;;;;8.52;4.50;;;;;;;9.48;52.63;101497.81;5270844;28;20037;-81
2022/04/20 07:09:01;;;;;;;9.80;4.70;;;;;;;9.55;52.15;101473.56;5271520;28;20013;-82
2022/04/20 07:11:35;;;;;;;15.65;4.70;;;;;;;9.69;51.43;101491.78;5271967;28;20047;-83
2022/04/20 07:14:09;;;;;;;12.00;5.78;;;;;;;9.80;51.03;101477.06;5254416;28;20021;-82
2022/04/20 07:16:46;;;;;;;12.65;4.93;;;;;;;10.00;51.14;101484.06;5272271;28;20445;-81
2022/04/20 07:19:18;;;;;;;11.95;5.03;;;;;;;10.14;49.59;101484.03;5273499;28;20017;-82
2022/04/20 07:21:57;;;;;;;8.32;4.55;;;;;;;10.21;50.94;101477.97;5274097;28;20037;-82
2022/04/20 07:24:31;;;;;;;7.97;4.50;;;;;;;10.38;49.78;101471.06;5274060;28;20045;-80
2022/04/20 07:27:03;;;;;;;8.35;4.13;;;;;;;10.61;49.86;101487.50;5274817;28;20028;-80
2022/04/20 07:29:40;;;;;;;7.32;4.25;;;;;;;10.69;49.06;101485.75;5275376;28;20025;-80
2022/04/20 07:32:14;;;;;;;6.80;4.38;;;;;;;10.88;49.87;101484.88;5268069;28;20021;-82
2022/04/20 07:34:51;;;;;;;8.98;4.50;;;;;;;10.93;49.73;101480.50;5248968;28;20037;-80
2022/04/20 07:37:25;;;;;;;8.38;3.90;;;;;;;11.01;46.67;101477.88;5233883;28;20496;-82
2022/04/20 07:40:01;;;;;;;6.47;4.10;;;;;;;11.10;45.74;101475.19;5249716;28;20037;-82
2022/04/20 07:42:37;;;;;;;10.77;4.10;;;;;;;11.31;45.64;101489.91;5267377;28;20139;-82
2022/04/20 07:45:11;;;;;;;12.20;4.07;;;;;;;11.40;45.87;101477.69;5268502;28;20025;-81
2022/04/20 07:47:46;;;;;;;7.00;4.07;;;;;;;11.55;45.00;101497.63;5268936;28;20382;-81
2022/04/20 07:50:19;;;;;;;7.10;4.07;;;;;;;11.76;45.87;101494.88;5269441;28;20136;-81
2022/04/20 07:52:59;;;;;;;8.43;4.15;;;;;;;11.81;45.03;101500.94;5269323;28;20048;-82
2022/04/20 07:55:37;;;;;;;9.70;4.13;;;;;;;11.91;43.96;101483.47;5268402;28;20131;-78
2022/04/20 07:58:15;;;;;;;7.45;4.10;;;;;;;12.08;44.16;101495.59;5251467;28;20378;-82
2022/04/20 08:00:57;;;;;;;8.20;4.15;;;;;;;12.17;43.54;101499.00;5252071;28;20104;-82
2022/04/20 08:03:34;;;;;;;9.98;4.47;;;;;;;12.25;43.11;101491.06;5251529;28;20082;-79
2022/04/20 08:06:12;;;;;;;9.68;4.47;;;;;;;12.35;42.69;101489.28;5252233;28;20036;-80
2022/04/20 08:08:49;;;;;;;6.80;4.25;;;;;;;12.45;42.44;101496.13;5270614;28;20124;-81
2022/04/20 08:11:24;;;;;;;8.77;4.18;;;;;;;12.52;41.86;101497.81;5271338;28;20047;-82
2022/04/20 08:14:09;;;;;;;8.15;4.18;;;;;;;12.58;41.62;101502.13;5271712;28;20047;-81
2022/04/20 08:16:44;;;;;;;11.07;4.65;;;;;;;12.83;42.58;101512.31;5271573;28;20028;-82
2022/04/20 08:19:20;;;;;;;8.75;4.65;;;;;;;12.93;42.46;101493.03;5275210;28;20021;-82
2022/04/20 08:21:55;;;;;;;7.88;4.40;;;;;;;13.20;42.30;101491.84;5257315;28;20044;-82
2022/04/20 08:24:29;;;;;;;9.30;4.68;;;;;;;13.30;41.89;101508.31;5276811;28;20395;-82
2022/04/20 08:27:02;;;;;;;9.38;4.05;;;;;;;13.34;40.87;101509.16;5258739;28;20037;-82
2022/04/20 08:29:35;;;;;;;8.18;4.93;;;;;;;13.18;40.95;101498.84;5259704;28;20055;-82
2022/04/20 08:32:12;;;;;;;13.10;4.65;;;;;;;13.45;41.30;101507.28;5277324;28;20037;-81
2022/04/20 08:34:52;;;;;;;7.40;4.93;;;;;;;13.52;40.60;101508.91;5259850;28;20106;-83
2022/04/20 08:37:27;;;;;;;7.95;4.35;;;;;;;13.73;41.66;101501.66;5259876;28;20029;-83
2022/04/20 08:40:01;;;;;;;5.88;3.90;;;;;;;13.92;42.07;101497.00;5277770;28;20013;-82
2022/04/20 08:42:51;;;;;;;9.90;4.43;;;;;;;14.08;41.14;101501.13;5272731;28;20025;-82
2022/04/20 08:45:37;;;;;;;8.68;4.57;;;;;;;14.07;40.06;101501.13;5269922;28;20024;-83
2022/04/20 08:48:13;;;;;;;8.27;5.30;;;;;;;13.84;39.68;101492.72;5252039;28;20040;-82
2022/04/20 08:50:53;;;;;;;7.15;4.35;;;;;;;13.99;39.24;101494.28;5271093;28;20103;-82
2022/04/20 08:53:30;;;;;;;11.30;4.85;;;;;;;14.16;40.92;101486.13;5270792;28;20029;-82
2022/04/20 08:59:32;;;;;;;7.40;4.65;;;;;;;14.62;39.52;101494.13;5271615;28;20029;-82
2022/04/20 09:02:05;;;;;;;11.18;5.15;;;;;;;14.80;38.52;101490.31;5272572;28;20029;-82
2022/04/20 09:04:43;;;;;;;9.40;4.75;;;;;;;14.86;37.75;101484.91;5271725;28;20033;-82
2022/04/20 09:07:18;;;;;;;7.50;3.92;;;;;;;15.07;37.92;101495.00;5272227;28;20380;-81
2022/04/20 09:09:53;;;;;;;6.25;4.40;;;;;;;15.24;38.33;101489.41;5254559;28;20028;-82
2022/04/20 09:12:33;;;;;;;7.30;4.40;;;;;;;15.24;37.53;101485.91;5273322;28;20028;-84
2022/04/20 09:15:09;;;;;;;9.90;4.53;;;;;;;15.27;36.49;101483.22;5273217;28;20024;-82
2022/04/20 09:17:49;;;;;;;9.68;4.85;;;;;;;15.24;35.79;101494.66;5272895;28;20051;-80
2022/04/20 09:20:28;;;;;;;8.80;4.05;;;;;;;15.60;36.20;101486.88;5273700;28;20036;-81
2022/04/20 09:23:08;;;;;;;8.70;4.30;;;;;;;16.24;35.05;101491.53;5255050;28;20440;-81
2022/04/20 09:25:50;;;;;;;9.40;4.55;;;;;;;17.11;34.03;101493.63;5275468;28;20021;-81
2022/04/20 09:28:26;;;;;;;11.55;4.10;;;;;;;17.93;32.01;101492.94;5275582;28;20368;-82
2022/04/20 09:31:02;;;;;;;8.55;4.50;;;;;;;19.01;30.23;101482.19;5257948;28;20026;-80
2022/04/20 09:33:50;;;;;;;7.63;4.10;;;;;;;19.95;29.19;101483.03;5276392;28;20487;-81
2022/04/20 09:36:48;;;;;;;7.53;3.60;;;;;;;20.49;27.38;101473.66;5258541;28;20116;-81
2022/04/20 09:39:25;;;;;;;10.43;4.15;;;;;;;20.67;26.46;101474.69;5276889;28;20024;-82
2022/04/20 09:42:02;;;;;;;7.05;3.03;;;;;;;21.26;24.79;101472.88;5278077;28;20025;-80
2022/04/20 09:44:40;;;;;;;4.55;2.75;;;;;;;21.73;23.73;101468.91;5277228;28;20025;-82
2022/04/20 09:50:05;;;;;;;6.50;2.53;;;;;;;21.98;24.38;101457.09;5274819;28;20029;-82
2022/04/20 09:52:42;;;;;;;10.02;3.20;;;;;;;21.87;25.52;101473.56;5270271;28;20031;-82
2022/04/20 09:55:33;;;;;;;10.35;3.65;;;;;;;22.57;24.44;101463.84;5269557;28;20041;-80
2022/04/20 09:58:41;;;;;;;10.23;3.70;;;;;;;22.66;23.62;101473.09;5269107;28;20353;-81
2022/04/20 10:01:36;;;;;;;6.47;3.40;;;;;;;22.55;24.09;101472.81;5267302;28;20092;-81
2022/04/20 10:04:19;;;;;;;5.38;2.95;;;;;;;23.05;22.41;101461.25;5266683;28;20459;-81
2022/04/20 10:06:55;;;;;;;5.13;3.50;;;;;;;23.83;22.16;101457.91;5266340;28;20084;-81
2022/04/20 10:09:35;;;;;;;4.80;2.90;;;;;;;23.27;21.92;101453.00;5266780;28;20039;-81
2022/04/20 10:12:11;;;;;;;7.30;3.42;;;;;;;23.98;21.63;101446.31;5255400;28;20045;-81
2022/04/20 10:18:00;;;;;;;8.95;3.83;;;;;;;23.96;22.14;101436.72;5273866;28;20029;-82
2022/04/20 10:20:36;;;;;;;5.78;3.10;;;;;;;24.48;21.21;101435.41;5255545;28;20048;-81
2022/04/20 10:23:17;;;;;;;6.35;3.47;;;;;;;24.31;22.21;101442.63;5256445;28;20033;-81
2022/04/20 10:25:54;;;;;;;4.93;3.03;;;;;;;24.80;20.79;101430.78;5276094;28;20122;-83
2022/04/20 10:28:46;;;;;;;6.90;3.50;;;;;;;25.04;20.64;101441.69;5275370;28;20029;-81
2022/04/20 10:31:46;;;;;;;4.53;3.03;;;;;;;25.48;20.51;101440.66;5274867;28;20028;-81
2022/04/20 10:34:21;;;;;;;4.78;3.28;;;;;;;24.89;20.40;101432.88;5275870;28;20045;-81
2022/04/20 10:37:07;;;;;;;7.78;3.00;;;;;;;24.92;21.38;101437.13;5258656;28;20066;-82
2022/04/20 10:39:43;;;;;;;6.78;2.50;;;;;;;25.47;20.61;101414.94;5276328;28;20082;-81
2022/04/20 10:42:19;;;;;;;4.05;2.50;;;;;;;25.40;19.79;101426.97;5276806;28;20028;-81
2022/04/20 10:45:03;;;;;;;10.48;2.53;;;;;;;26.35;20.08;101427.75;5258968;28;20029;-81
2022/04/20 10:47:58;;;;;;;4.75;2.35;;;;;;;27.36;19.78;101428.72;5259386;28;20502;-81
2022/04/20 10:50:39;;;;;;;7.20;3.13;;;;;;;25.64;19.47;101424.50;5274762;28;20036;-81
2022/04/20 10:53:23;;;;;;;4.20;2.40;;;;;;;27.09;19.77;101425.22;5236509;28;20040;-81
2022/04/20 10:56:02;;;;;;;7.78;2.67;;;;;;;26.86;18.74;101421.53;5270053;28;20056;-81
2022/04/20 10:58:36;;;;;;;6.75;2.60;;;;;;;26.26;18.59;101416.84;5269930;28;20037;-82
2022/04/20 11:01:15;;;;;;;6.13;2.72;;;;;;;26.58;18.44;101409.22;5269578;28;20081;-83
2022/04/20 11:03:58;;;;;;;3.90;2.63;;;;;;;27.46;18.04;101414.50;5269922;28;20099;-82
2022/04/20 11:06:58;;;;;;;3.85;2.53;;;;;;;28.30;17.83;101413.59;5269724;28;20434;-82
2022/04/20 11:09:45;;;;;;;4.78;2.22;;;;;;;28.31;17.86;101421.50;5270655;28;20025;-80
2022/04/20 11:18:44;;;;;;;5.53;2.95;;;;;;;27.35;17.24;101395.72;5272376;28;20033;-81
2022/04/20 11:21:19;;;;;;;4.45;2.58;;;;;;;28.51;17.09;101390.47;5270958;28;20021;-81
2022/04/20 11:24:06;;;;;;;5.25;2.60;;;;;;;29.05;17.74;101396.03;5255940;28;20025;-81
2022/04/20 11:26:54;;;;;;;5.03;2.63;;;;;;;28.94;15.95;101388.88;5272662;28;20022;-81
2022/04/20 11:29:30;;;;;;;4.57;2.70;;;;;;;29.57;16.22;101385.53;5255525;28;20094;-81
2022/04/20 11:32:09;;;;;;;5.28;2.60;;;;;;;28.42;17.25;101384.94;5273944;28;20032;-80
2022/04/20 11:34:44;;;;;;;5.80;2.83;;;;;;;28.38;17.55;101379.84;5255567;28;20048;-82
2022/04/20 11:37:19;;;;;;;6.45;2.90;;;;;;;29.28;15.95;101378.06;5273838;28;20064;-81
2022/04/20 11:40:31;;;;;;;4.32;2.70;;;;;;;30.87;16.22;101381.44;5269180;28;20025;-80
2022/04/20 11:43:10;;;;;;;5.97;2.65;;;;;;;30.33;16.32;101371.88;5161927;29;20047;-81
2022/04/20 11:45:57;;;;;;;3.13;2.20;;;;;;;30.68;15.58;101381.41;5162296;29;20036;-82
2022/04/20 11:49:19;;;;;;;5.45;2.60;;;;;;;31.07;14.72;101381.53;5160457;29;20090;-81
2022/04/20 11:52:08;;;;;;;;;;;;;;;32.86;14.20;101367.44;5162355;28;20023;-79
2022/04/20 11:54:54;;;;;;;4.20;2.55;;;;;;;30.74;14.86;101367.41;5165835;29;19906;-80
2022/04/20 11:57:44;;;;;;;3.85;2.72;;;;;;;30.30;15.87;101362.25;5146137;29;20381;-80
2022/04/20 12:00:28;;;;;;;4.68;2.72;;;;;;;30.31;15.04;101363.94;5163417;29;20047;-79
2022/04/20 12:03:03;;;;;;;7.10;3.17;;;;;;;27.52;17.50;101348.94;5163993;29;20351;-81
2022/04/20 12:05:42;;;;;;;8.43;3.03;;;;;;;29.32;15.93;101339.25;5162412;29;20047;-79
2022/04/20 12:08:19;;;;;;;4.63;3.10;;;;;;;30.12;15.00;101336.97;5156284;29;20035;-80
2022/04/20 12:10:52;;;;;;;5.45;2.55;;;;;;;31.45;14.66;101339.44;5143360;29;20046;-80
2022/04/20 12:13:42;;;;;;;8.68;2.58;;;;;;;32.23;14.75;101342.00;5147036;29;20054;-81
2022/04/20 12:16:15;;;;;;;5.25;2.88;;;;;;;31.34;14.58;101345.81;5160772;29;20039;-81
2022/04/20 12:18:49;;;;;;;5.15;2.97;;;;;;;32.10;13.88;101349.59;5185327;28;20109;-80
2022/04/20 12:21:56;;;;;;;10.63;3.88;;;;;;;32.99;14.07;101329.25;5243384;28;20441;-81
2022/04/20 12:24:28;;;;;;;5.60;2.80;;;;;;;32.64;13.93;101326.38;5243241;28;20033;-80
2022/04/20 12:27:00;;;;;;;6.20;3.50;;;;;;;32.31;13.57;101336.75;5243910;28;20080;-81
2022/04/20 12:29:34;;;;;;;10.60;3.40;;;;;;;32.11;14.80;101313.53;5244934;28;20031;-80
2022/04/20 12:32:23;;;;;;;5.47;3.20;;;;;;;33.03;14.40;101328.78;5244699;28;20079;-81
2022/04/20 12:35:01;;;;;;;6.18;3.17;;;;;;;31.37;14.13;101331.22;5240089;28;20025;-80
2022/04/20 12:37:39;;;;;;;9.35;3.10;;;;;;;32.93;14.08;101319.09;5240686;28;20112;-82
2022/04/20 12:40:24;;;;;;;4.60;3.30;;;;;;;32.43;14.28;101315.81;5243273;28;20036;-80
2022/04/20 12:43:09;;;;;;;3.28;2.67;;;;;;;32.30;13.61;101312.63;5244247;28;20204;-81
2022/04/20 12:45:43;;;;;;;5.97;3.08;;;;;;;32.75;12.82;101314.53;5239995;28;20045;-81
2022/04/20 12:48:22;;;;;;;6.50;2.97;;;;;;;32.90;13.09;101312.97;5242858;28;20032;-80
2022/04/20 12:51:02;;;;;;;6.10;2.70;;;;;;;33.91;12.75;101297.47;5241822;28;20025;-81
2022/04/20 12:53:40;;;;;;;7.28;3.10;;;;;;;33.23;13.65;101309.75;5240545;28;20377;-81
2022/04/20 13:02:05;;;;;;;5.20;2.63;;;;;;;33.96;12.85;101304.06;5264216;28;20025;-81
2022/04/20 13:04:48;;;;;;;5.30;2.83;;;;;;;33.55;13.87;101295.66;5263001;28;20063;-79
2022/04/20 13:07:19;;;;;;;3.28;2.42;;;;;;;33.59;12.55;101286.22;5258634;28;20040;-82